Stations météo

Publicité
Lons-Le-Saunier, France (7390): Température de l'air & dewpoint: 05.12.2019 13:00:00 - 11.12.2019 13:00:00 (CET)Lons-Le-Saunier, France (7390): Vitesse du vent & gusts: 05.12.2019 13:00:00 - 11.12.2019 13:00:00 (CET)Lons-Le-Saunier, France (7390): Direction du vent: 05.12.2019 13:00:00 - 11.12.2019 13:00:00 (CET)Lons-Le-Saunier, France (7390): Quantités de précipitations: 05.12.2019 13:00:00 - 11.12.2019 13:00:00 (CET)
Date & Time tt [°C] td [°C] ff [km/h] ff [knt] fx [km/h] fx [knt] dd rr [mm]
11.12.2019 13:00:00 - - - - - - - -
11.12.2019 12:00:00 7,6 -0,9 22 12 42 23 SSW 0,0
11.12.2019 11:00:00 6,2 -0,5 21 11 31 17 SSE 0,0
11.12.2019 10:00:00 2,0 0,5 8 4 18 10 SE 0,2
11.12.2019 09:00:00 2,4 0,1 4 2 15 8 SSE 0,0
11.12.2019 08:00:00 1,7 0,1 8 4 16 9 SSE 0,0
11.12.2019 07:00:00 1,8 -0,3 11 6 16 9 SSW -
11.12.2019 06:00:00 1,7 -0,4 9 5 15 8 SSW 0,0
11.12.2019 05:00:00 3,0 -1,0 8 4 16 9 SE 0,0
11.12.2019 04:00:00 2,2 -0,9 8 4 15 8 SE 0,0
11.12.2019 03:00:00 1,9 -0,8 9 5 15 8 SE 0,0
11.12.2019 02:00:00 2,0 -1,1 8 4 16 9 SE 0,0
11.12.2019 01:00:00 1,1 -0,7 9 5 13 7 SE -
11.12.2019 00:00:00 1,6 -0,5 8 4 11 6 SE 0,0
10.12.2019 23:00:00 1,1 -0,2 9 5 16 9 ESE 0,0
10.12.2019 22:00:00 0,8 -0,4 11 6 15 8 ESE 0,0
10.12.2019 21:00:00 0,7 -0,6 8 4 13 7 SE 0,0
10.12.2019 20:00:00 1,3 -0,2 8 4 9 5 ESE 0,0
10.12.2019 19:00:00 2,1 0,6 8 4 11 6 ESE -
10.12.2019 18:00:00 3,3 0,0 5 3 11 6 SE 0,0
10.12.2019 17:00:00 4,5 -0,1 8 4 13 7 NW 0,0
10.12.2019 16:00:00 6,0 0,9 5 3 13 7 NNW 0,0
10.12.2019 15:00:00 6,1 1,0 9 5 15 8 NE 0,0
10.12.2019 14:00:00 6,3 1,4 8 4 16 9 N 0,0
10.12.2019 13:00:00 5,9 1,8 11 6 18 10 NW -
10.12.2019 12:00:00 5,5 2,7 5 3 22 12 N 0,0
10.12.2019 11:00:00 4,3 2,3 8 4 13 7 NNW 0,0
10.12.2019 10:00:00 3,2 1,7 8 4 11 6 NNW 0,0
10.12.2019 09:00:00 2,1 1,4 0 0 9 5 N 0,0
10.12.2019 08:00:00 1,7 0,8 5 3 11 6 E 0,0
10.12.2019 07:00:00 3,3 1,3 8 4 13 7 NNE -
10.12.2019 06:00:00 3,7 1,9 4 2 15 8 N 0,0
10.12.2019 05:00:00 4,0 2,0 9 5 21 11 NNW 0,0
10.12.2019 04:00:00 4,2 2,1 9 5 18 10 NNW 0,0
10.12.2019 03:00:00 4,5 2,0 11 6 21 11 NNW 0,0
10.12.2019 02:00:00 4,7 2,1 13 7 35 19 N 0,0
10.12.2019 01:00:00 5,0 2,2 15 8 29 16 NW -
10.12.2019 00:00:00 5,1 2,4 9 5 18 10 WNW 0,0
09.12.2019 23:00:00 5,3 2,6 11 6 24 13 NW 0,0
09.12.2019 22:00:00 5,4 3,2 11 6 18 10 WNW 0,0
09.12.2019 21:00:00 5,3 3,9 4 2 9 5 W 0,0
09.12.2019 20:00:00 5,3 3,9 8 4 34 18 WNW 0,0
09.12.2019 19:00:00 5,5 4,3 21 11 50 27 NW -
09.12.2019 18:00:00 5,8 4,3 13 7 52 28 W 0,4
09.12.2019 17:00:00 6,9 5,2 16 9 34 18 W 0,2
09.12.2019 16:00:00 7,2 5,8 18 10 55 30 W 0,8
09.12.2019 15:00:00 7,2 6,1 21 11 39 21 SW 0,8
09.12.2019 14:00:00 7,2 6,0 26 14 46 25 SW 0,6
09.12.2019 13:00:00 7,2 6,0 18 10 42 23 WSW -
09.12.2019 12:00:00 7,2 5,0 28 15 44 24 SW 0,6
09.12.2019 11:00:00 6,8 4,8 29 16 52 28 SSW 0,4
09.12.2019 10:00:00 7,0 4,5 34 18 59 32 SSW 0,2
09.12.2019 09:00:00 7,8 3,6 28 15 59 32 SSW 0,0
09.12.2019 08:00:00 7,6 3,8 29 16 48 26 SSW 0,0
09.12.2019 07:00:00 7,7 3,7 29 16 52 28 SSW -
09.12.2019 06:00:00 8,1 3,7 28 15 48 26 SW 0,2
09.12.2019 05:00:00 7,0 4,1 16 9 31 17 SSW 0,0
09.12.2019 04:00:00 7,3 4,3 24 13 46 25 WSW 0,4
09.12.2019 03:00:00 9,1 2,6 22 12 41 22 SSW 0,0
09.12.2019 02:00:00 7,7 3,0 18 10 35 19 S 0,0
09.12.2019 01:00:00 8,0 3,8 21 11 41 22 SSW -
09.12.2019 00:00:00 8,8 5,0 21 11 42 23 SW 0,0
08.12.2019 23:00:00 9,4 7,3 28 15 52 28 WSW 0,0
08.12.2019 22:00:00 10,5 8,1 18 10 37 20 SSW 0,0
08.12.2019 21:00:00 10,1 8,0 21 11 37 20 SSW 0,0
08.12.2019 20:00:00 9,1 8,2 21 11 35 19 SSW 0,4
08.12.2019 19:00:00 9,7 7,0 21 11 35 19 SSW -
08.12.2019 18:00:00 10,3 6,4 21 11 35 19 S 0,2
08.12.2019 17:00:00 10,5 6,3 18 10 39 21 S 0,4
08.12.2019 16:00:00 11,3 5,6 16 9 29 16 S 0,0
08.12.2019 15:00:00 11,5 6,2 16 9 34 18 SSW 0,0
08.12.2019 14:00:00 11,9 6,0 22 12 42 23 S 0,0
08.12.2019 13:00:00 11,7 6,4 18 10 31 17 SSW -
08.12.2019 12:00:00 11,6 6,3 13 7 34 18 S 0,0
08.12.2019 11:00:00 9,7 6,6 11 6 26 14 S 0,0
08.12.2019 10:00:00 8,0 6,0 15 8 22 12 SSW 0,0
08.12.2019 09:00:00 7,9 6,2 11 6 22 12 SW 0,0
08.12.2019 08:00:00 9,3 5,8 13 7 21 11 SSE 0,0
08.12.2019 07:00:00 8,7 6,0 11 6 24 13 S -
08.12.2019 06:00:00 8,5 5,9 11 6 18 10 SE 0,0
08.12.2019 05:00:00 8,9 6,0 15 8 24 13 S 0,0
08.12.2019 04:00:00 8,7 6,1 11 6 16 9 SSE 0,0
08.12.2019 03:00:00 8,0 6,5 8 4 16 9 SE 0,0
08.12.2019 02:00:00 8,2 6,3 9 5 15 8 S 0,2
08.12.2019 01:00:00 7,9 6,8 9 5 13 7 SSE -
08.12.2019 00:00:00 8,2 7,3 5 3 11 6 SSE 0,0
07.12.2019 23:00:00 8,2 7,1 8 4 9 5 SSE 0,0
07.12.2019 22:00:00 8,2 7,3 8 4 13 7 SE 0,0
07.12.2019 21:00:00 8,2 7,4 5 3 9 5 ESE 0,0
07.12.2019 20:00:00 8,3 7,7 5 3 13 7 SSE 0,0
07.12.2019 19:00:00 8,2 7,8 9 5 15 8 S -
07.12.2019 18:00:00 8,8 7,7 8 4 11 6 SSE 0,0
07.12.2019 17:00:00 9,0 7,8 5 3 15 8 S 0,0
07.12.2019 16:00:00 9,2 8,1 8 4 16 9 SSW 0,0
07.12.2019 15:00:00 9,2 8,0 9 5 24 13 SSW 0,0
07.12.2019 14:00:00 9,5 7,6 15 8 26 14 SW 0,0
07.12.2019 13:00:00 9,3 7,7 8 4 13 7 S -
07.12.2019 12:00:00 8,7 7,8 8 4 16 9 SSE 0,0
07.12.2019 11:00:00 7,9 7,1 9 5 15 8 SSE 0,0
07.12.2019 10:00:00 7,4 6,8 8 4 18 10 SSE 0,0
07.12.2019 09:00:00 7,3 6,7 9 5 18 10 SSE 0,2
07.12.2019 08:00:00 6,9 6,5 8 4 18 10 SSE 0,0
07.12.2019 07:00:00 6,3 6,3 11 6 21 11 SSE -
07.12.2019 06:00:00 5,1 4,7 11 6 22 12 S 0,8
07.12.2019 05:00:00 6,4 3,2 9 5 16 9 WSW 0,0
07.12.2019 04:00:00 6,6 2,7 8 4 13 7 S 0,0
07.12.2019 03:00:00 6,5 2,9 8 4 16 9 S 0,0
07.12.2019 02:00:00 6,5 2,8 8 4 11 6 SW 0,0
07.12.2019 01:00:00 6,9 2,4 9 5 18 10 SW -
07.12.2019 00:00:00 7,4 2,7 9 5 26 14 SSE 0,0
06.12.2019 23:00:00 5,7 2,3 15 8 22 12 SE 0,0
06.12.2019 22:00:00 5,3 1,9 8 4 18 10 S 0,0
06.12.2019 21:00:00 5,6 2,1 9 5 16 9 SSW 0,0
06.12.2019 20:00:00 6,4 1,3 9 5 15 8 SSW 0,0
06.12.2019 19:00:00 7,0 1,1 9 5 13 7 SSW -
06.12.2019 18:00:00 7,0 1,9 9 5 15 8 S 0,0
06.12.2019 17:00:00 6,1 2,2 9 5 15 8 SSE 0,0
06.12.2019 16:00:00 6,7 3,1 9 5 16 9 SSW 0,0
06.12.2019 15:00:00 7,6 4,2 9 5 16 9 SW 0,0
06.12.2019 14:00:00 6,6 3,6 8 4 21 11 SSW 0,0
06.12.2019 13:00:00 4,5 3,3 8 4 15 8 WSW -
06.12.2019 12:00:00 2,2 1,6 9 5 21 11 SSW 0,0
06.12.2019 11:00:00 0,0 0,0 26 14 - - SSE 0,0
06.12.2019 10:00:00 -1,6 -1,7 - - - - - 0,0
06.12.2019 09:00:00 -3,3 -3,3 8 4 13 7 SSE 0,0
06.12.2019 08:00:00 -4,8 -4,9 5 3 9 5 W 0,0
06.12.2019 07:00:00 -4,2 -4,2 5 3 9 5 S -
06.12.2019 06:00:00 -4,3 -4,4 8 4 11 6 NW 0,0
06.12.2019 05:00:00 -4,2 -4,3 5 3 8 4 ESE 0,0
06.12.2019 04:00:00 -3,8 -4,1 5 3 9 5 WNW 0,0
06.12.2019 03:00:00 -3,1 -3,1 4 2 8 4 ENE 0,0
06.12.2019 02:00:00 -3,2 -3,2 0 0 8 4 N 0,0
06.12.2019 01:00:00 -3,1 -3,1 2 1 8 4 SSW -
06.12.2019 00:00:00 -3,2 -3,2 4 2 8 4 S 0,0
05.12.2019 23:00:00 -2,5 -2,5 2 1 9 5 SSW 0,0
05.12.2019 22:00:00 -2,2 -2,2 5 3 9 5 ESE 0,0
05.12.2019 21:00:00 -2,0 -2,0 2 1 9 5 E 0,0
05.12.2019 20:00:00 -2,2 -2,2 5 3 13 7 WSW 0,0
05.12.2019 19:00:00 -1,9 -1,9 8 4 11 6 SSE -
05.12.2019 18:00:00 -1,5 -1,5 4 2 8 4 NW 0,0
05.12.2019 17:00:00 -1,4 -1,4 0 0 8 4 N 0,0
05.12.2019 16:00:00 -0,6 -0,6 4 2 8 4 NNW 0,0
05.12.2019 15:00:00 -0,9 -0,9 2 1 13 7 W 0,0
05.12.2019 14:00:00 -1,4 -1,5 4 2 11 6 W 0,0
05.12.2019 13:00:00 -1,0 -1,4 5 3 9 5 W -

tt = Température de l'air
td = dewpoint
ff = Vitesse du vent
fx = gusts
dd = Direction du vent
rr = Quantités de précipitations

stations d'obs. à proximité